Terminal Aerodrome Forecast
Issued by NWS Des Moines, IA

Home | Current Version | Previous Version | Text Only | Print | Product List | Glossary On
Versions: 1 2 3 4 5 6 7 8 9 10 11 12 13 14 15 16 17 18 19 20 21 22 23 24 25 26 27 28
000
FTUS43 KDMX 201120
TAFALO
TAF
KALO 201120Z 2012/2112 32008KT P6SM SKC
     FM201600 32011G18KT P6SM SKC
     FM202300 35005KT P6SM SKC
     FM210400 03004KT P6SM SKC=

USA.gov is the U.S. government's official web portal to all federal, state and local government web resources and services.